createdAt,value
2022-11-24T00:00:26.095Z,94202.66
2022-11-24T00:02:24.565Z,94205.22
2022-11-24T00:04:22.760Z,94204.78
2022-11-24T00:06:21.097Z,94201.47
2022-11-24T00:08:19.493Z,94204.47
2022-11-24T00:10:18.010Z,94203.34
2022-11-24T00:12:17.846Z,94207.50
2022-11-24T00:14:15.923Z,94213.19
2022-11-24T00:16:15.990Z,94206.81
2022-11-24T00:18:14.475Z,94213.56
2022-11-24T00:20:12.874Z,94217.31
2022-11-24T00:22:11.174Z,94217.38
2022-11-24T00:24:09.680Z,94211.97
2022-11-24T00:26:10.248Z,94216.69
2022-11-24T00:28:10.053Z,94219.28
2022-11-24T00:30:12.391Z,94211.19
2022-11-24T00:32:10.924Z,94206.50
2022-11-24T00:34:12.597Z,94218.72
2022-11-24T00:36:10.852Z,94216.09
2022-11-24T00:38:08.938Z,94222.09
2022-11-24T00:40:10.971Z,94224.69
2022-11-24T00:42:09.441Z,94218.13
2022-11-24T00:44:09.727Z,94216.41
2022-11-24T00:46:08.153Z,94223.31
2022-11-24T00:48:07.203Z,94229.19
2022-11-24T00:50:06.203Z,94232.34
2022-11-24T00:52:04.417Z,94239.50
2022-11-24T00:54:02.890Z,94236.63
2022-11-24T00:56:03.673Z,94241.84
2022-11-24T00:58:01.921Z,94231.44
2022-11-24T01:00:01.547Z,94222.50
2022-11-24T01:02:02.692Z,94228.44
2022-11-24T01:04:02.673Z,94226.25
2022-11-24T01:06:04.624Z,94231.31
2022-11-24T01:08:03.084Z,94226.91
2022-11-24T01:10:01.762Z,94227.69
2022-11-24T01:12:02.733Z,94228.25
2022-11-24T01:14:03.792Z,94221.03
2022-11-24T01:16:03.563Z,94226.03
2022-11-24T01:18:01.968Z,94231.03
2022-11-24T01:20:00.153Z,94223.22
2022-11-24T01:21:58.365Z,94223.34
2022-11-24T01:23:56.712Z,94221.91
2022-11-24T01:25:55.161Z,94232.41
2022-11-24T01:27:53.523Z,94245.00
2022-11-24T01:29:51.702Z,94245.19
2022-11-24T01:31:51.328Z,94247.31
2022-11-24T01:33:49.900Z,94242.69
2022-11-24T01:35:48.074Z,94249.69
2022-11-24T01:37:46.376Z,94232.16
2022-11-24T01:39:44.644Z,94244.16
2022-11-24T01:41:43.157Z,94241.44
2022-11-24T01:43:42.200Z,94246.88
2022-11-24T01:45:41.750Z,94236.34
2022-11-24T01:47:42.287Z,94243.53
2022-11-24T01:49:46.022Z,94235.09
2022-11-24T01:51:48.800Z,94237.28
2022-11-24T01:53:53.679Z,94238.06
2022-11-24T01:55:53.848Z,94236.72
2022-11-24T01:57:56.653Z,94239.56
2022-11-24T02:00:01.030Z,94240.38
2022-11-24T02:01:59.707Z,94236.72
2022-11-24T02:04:01.113Z,94231.06
2022-11-24T02:06:03.737Z,94235.56
2022-11-24T02:08:03.220Z,94238.44
2022-11-24T02:10:05.932Z,94239.38
2022-11-24T02:12:04.736Z,94235.72
2022-11-24T02:14:03.333Z,94240.09
2022-11-24T02:16:02.462Z,94239.97
2022-11-24T02:18:00.975Z,94245.50
2022-11-24T02:20:04.148Z,94245.53
2022-11-24T02:22:04.144Z,94247.50
2022-11-24T02:24:10.252Z,94246.22
2022-11-24T02:26:20.322Z,94251.00
2022-11-24T02:28:22.602Z,94257.38
2022-11-24T02:30:20.867Z,94249.03
2022-11-24T02:32:21.091Z,94243.56
2022-11-24T02:34:19.364Z,94245.38
2022-11-24T02:36:17.790Z,94256.44
2022-11-24T02:38:16.315Z,94260.66
2022-11-24T02:40:16.795Z,94261.97
2022-11-24T02:42:15.202Z,94254.03
2022-11-24T02:44:19.179Z,94254.28
2022-11-24T02:46:17.630Z,94255.72
2022-11-24T02:48:16.303Z,94259.09
2022-11-24T02:50:14.820Z,94252.19
2022-11-24T02:52:12.925Z,94245.31
2022-11-24T02:54:11.177Z,94257.22
2022-11-24T02:56:09.731Z,94243.53
2022-11-24T02:58:07.954Z,94250.03
2022-11-24T03:00:09.572Z,94248.19
2022-11-24T03:02:07.802Z,94242.28
2022-11-24T03:04:06.139Z,94256.53
2022-11-24T03:06:04.493Z,94251.56
2022-11-24T03:08:02.712Z,94252.16
2022-11-24T03:10:00.938Z,94260.56
2022-11-24T03:11:59.178Z,94254.28
2022-11-24T03:13:57.546Z,94265.03
2022-11-24T03:15:57.311Z,94264.91
2022-11-24T03:17:56.953Z,94263.13
2022-11-24T03:19:55.854Z,94269.31
2022-11-24T03:21:56.161Z,94275.69
2022-11-24T03:23:55.357Z,94274.06
2022-11-24T03:25:53.611Z,94283.44
2022-11-24T03:27:51.798Z,94282.69
2022-11-24T03:29:49.950Z,94287.41
2022-11-24T03:31:49.612Z,94279.72
2022-11-24T03:33:47.827Z,94288.16
2022-11-24T03:35:46.065Z,94288.56
2022-11-24T03:37:44.379Z,94285.63
2022-11-24T03:39:42.655Z,94285.88
2022-11-24T03:41:40.879Z,94288.84
2022-11-24T03:43:43.507Z,94292.28
2022-11-24T03:45:46.526Z,94296.69
2022-11-24T03:47:46.809Z,94296.97
2022-11-24T03:49:45.001Z,94302.38
2022-11-24T03:51:43.257Z,94297.34
2022-11-24T03:53:41.553Z,94300.91
2022-11-24T03:55:40.149Z,94299.47
2022-11-24T03:57:38.362Z,94298.41
2022-11-24T03:59:38.321Z,94306.44
2022-11-24T04:01:36.942Z,94318.34
2022-11-24T04:03:36.944Z,94316.44
2022-11-24T04:05:36.417Z,94322.63
2022-11-24T04:07:42.505Z,94313.41
2022-11-24T04:09:40.947Z,94323.84
2022-11-24T04:11:53.062Z,94317.66
2022-11-24T04:13:51.378Z,94315.38
2022-11-24T04:15:49.822Z,94320.34
2022-11-24T04:17:49.906Z,94325.19
2022-11-24T04:19:49.886Z,94327.66
2022-11-24T04:21:48.126Z,94326.50
2022-11-24T04:23:46.377Z,94326.75
2022-11-24T04:25:44.761Z,94324.47
2022-11-24T04:27:43.278Z,94328.59
2022-11-24T04:29:41.556Z,94338.19
2022-11-24T04:31:39.979Z,94332.97
2022-11-24T04:33:38.166Z,94332.88
2022-11-24T04:35:38.228Z,94343.31
2022-11-24T04:37:36.605Z,94340.56
2022-11-24T04:39:35.251Z,94337.97
2022-11-24T04:41:33.817Z,94339.50
2022-11-24T04:43:36.343Z,94338.47
2022-11-24T04:45:37.452Z,94335.69
2022-11-24T04:47:36.059Z,94329.84
2022-11-24T04:49:34.398Z,94336.28
2022-11-24T04:51:34.009Z,94342.31
2022-11-24T04:53:32.378Z,94344.94
2022-11-24T04:55:30.776Z,94348.63
2022-11-24T04:57:29.450Z,94343.63
2022-11-24T04:59:27.733Z,94340.44
2022-11-24T05:01:29.116Z,94347.59
2022-11-24T05:03:27.436Z,94355.44
2022-11-24T05:05:25.734Z,94351.72
2022-11-24T05:07:25.378Z,94356.13
2022-11-24T05:09:36.718Z,94355.44
2022-11-24T05:11:41.955Z,94358.94
2022-11-24T05:13:40.428Z,94356.84
2022-11-24T05:15:39.463Z,94357.44
2022-11-24T05:17:40.240Z,94355.72
2022-11-24T05:19:38.788Z,94362.00
2022-11-24T05:21:38.246Z,94358.03
2022-11-24T05:23:37.875Z,94360.47
2022-11-24T05:25:36.839Z,94363.97
2022-11-24T05:27:35.321Z,94357.75
2022-11-24T05:29:33.694Z,94362.25
2022-11-24T05:31:32.264Z,94365.81
2022-11-24T05:33:33.513Z,94363.66
2022-11-24T05:35:32.101Z,94365.56
2022-11-24T05:37:30.479Z,94377.09
2022-11-24T05:39:30.230Z,94380.09
2022-11-24T05:41:28.336Z,94379.47
2022-11-24T05:43:26.759Z,94381.19
2022-11-24T05:45:24.978Z,94376.53
2022-11-24T05:47:23.769Z,94389.06
2022-11-24T05:49:21.856Z,94393.34
2022-11-24T05:51:20.137Z,94390.81
2022-11-24T05:53:18.510Z,94384.66
2022-11-24T05:55:20.063Z,94394.56
2022-11-24T05:57:18.781Z,94391.56
2022-11-24T05:59:17.011Z,94393.25
2022-11-24T06:01:15.323Z,94392.34
2022-11-24T06:03:13.779Z,94392.03
2022-11-24T06:05:11.935Z,94395.81
2022-11-24T06:07:12.425Z,94389.78
2022-11-24T06:09:10.836Z,94396.75
2022-11-24T06:11:19.731Z,94399.44
2022-11-24T06:13:18.169Z,94400.84
2022-11-24T06:15:17.399Z,94403.25
2022-11-24T06:17:18.822Z,94410.38
2022-11-24T06:19:17.078Z,94412.28
2022-11-24T06:21:15.366Z,94409.78
2022-11-24T06:23:18.525Z,94409.94
2022-11-24T06:25:17.362Z,94413.13
2022-11-24T06:27:25.922Z,94416.53
2022-11-24T06:29:24.280Z,94429.13
2022-11-24T06:31:24.841Z,94425.53
2022-11-24T06:33:23.270Z,94429.47
2022-11-24T06:35:22.773Z,94433.81
2022-11-24T06:37:21.093Z,94444.75
2022-11-24T06:39:19.449Z,94447.69
2022-11-24T06:41:18.260Z,94438.50
2022-11-24T06:43:18.038Z,94446.03
2022-11-24T06:45:16.426Z,94460.75
2022-11-24T06:47:14.696Z,94461.47
2022-11-24T06:49:13.135Z,94479.06
2022-11-24T06:51:14.202Z,94473.63
2022-11-24T06:53:13.231Z,94477.97
2022-11-24T06:55:11.453Z,94480.91
2022-11-24T06:57:09.859Z,94483.75
2022-11-24T06:59:15.678Z,94493.91
2022-11-24T07:01:15.978Z,94486.69
2022-11-24T07:03:16.659Z,94493.53
2022-11-24T07:05:39.507Z,94489.47
2022-11-24T07:07:43.261Z,94491.03
2022-11-24T07:09:41.607Z,94497.03
2022-11-24T07:11:40.591Z,94498.81
2022-11-24T07:13:39.180Z,94501.72
2022-11-24T07:15:41.777Z,94507.41
2022-11-24T07:17:41.065Z,94511.56
2022-11-24T07:19:39.371Z,94509.97
2022-11-24T07:21:37.840Z,94510.88
2022-11-24T07:23:41.854Z,94516.06
2022-11-24T07:25:40.041Z,94523.13
2022-11-24T07:27:38.471Z,94524.25
2022-11-24T07:29:36.714Z,94521.97
2022-11-24T07:31:38.281Z,94520.13
2022-11-24T07:33:41.415Z,94524.16
2022-11-24T07:35:42.247Z,94530.31
2022-11-24T07:37:40.681Z,94532.34
2022-11-24T07:39:38.944Z,94524.66
2022-11-24T07:41:37.087Z,94535.38
2022-11-24T07:43:36.949Z,94545.19
2022-11-24T07:45:35.202Z,94533.78
2022-11-24T07:47:34.834Z,94534.06
2022-11-24T07:49:33.109Z,94538.47
2022-11-24T07:51:31.369Z,94537.56
2022-11-24T07:53:29.834Z,94542.78
2022-11-24T07:55:28.308Z,94545.19
2022-11-24T07:57:26.649Z,94552.63
2022-11-24T07:59:24.855Z,94565.25
2022-11-24T08:01:23.182Z,94561.25
2022-11-24T08:03:22.907Z,94562.16
2022-11-24T08:05:21.416Z,94570.44
2022-11-24T08:07:19.690Z,94573.53
2022-11-24T08:09:18.066Z,94573.59
2022-11-24T08:11:18.571Z,94584.63
2022-11-24T08:13:16.809Z,94579.84
2022-11-24T08:15:15.147Z,94580.63
2022-11-24T08:17:13.896Z,94578.25
2022-11-24T08:19:25.866Z,94581.19
2022-11-24T08:21:27.109Z,94579.19
2022-11-24T08:23:25.324Z,94584.88
2022-11-24T08:25:25.397Z,94585.56
2022-11-24T08:27:23.711Z,94589.34
2022-11-24T08:29:26.415Z,94592.91
2022-11-24T08:31:28.457Z,94592.84
2022-11-24T08:33:32.623Z,94597.81
2022-11-24T08:35:40.209Z,94591.56
2022-11-24T08:37:38.766Z,94596.66
2022-11-24T08:39:37.235Z,94600.94
2022-11-24T08:41:40.616Z,94606.50
2022-11-24T08:43:40.685Z,94609.22
2022-11-24T08:45:41.635Z,94612.41
2022-11-24T08:48:06.117Z,94610.88
2022-11-24T08:50:07.081Z,94615.88
2022-11-24T08:52:07.106Z,94616.59
2022-11-24T08:54:05.687Z,94616.09
2022-11-24T08:56:04.478Z,94619.97
2022-11-24T08:58:03.464Z,94619.50
2022-11-24T09:00:04.715Z,94629.56
2022-11-24T09:02:05.247Z,94629.19
2022-11-24T09:04:05.690Z,94624.22
2022-11-24T09:06:04.188Z,94638.66
2022-11-24T09:08:06.803Z,94637.59
2022-11-24T09:10:20.983Z,94633.75
2022-11-24T09:12:22.657Z,94645.13
2022-11-24T09:14:21.921Z,94642.06
2022-11-24T09:16:23.009Z,94645.50
2022-11-24T09:18:26.337Z,94650.75
2022-11-24T09:20:29.313Z,94652.16
2022-11-24T09:22:34.550Z,94651.53
2022-11-24T09:24:34.273Z,94651.34
2022-11-24T09:26:37.182Z,94651.25
2022-11-24T09:28:35.940Z,94651.59
2022-11-24T09:30:36.935Z,94646.84
2022-11-24T09:32:35.414Z,94645.84
2022-11-24T09:34:49.151Z,94641.28
2022-11-24T09:36:47.667Z,94648.91
2022-11-24T09:38:48.103Z,94649.63
2022-11-24T09:40:47.947Z,94650.75
2022-11-24T09:43:00.787Z,94645.19
2022-11-24T09:45:57.568Z,94649.06
2022-11-24T09:48:20.553Z,94647.25
2022-11-24T09:50:24.763Z,94659.38
2022-11-24T09:52:39.657Z,94664.97
2022-11-24T09:54:46.597Z,94656.97
2022-11-24T09:56:48.409Z,94658.47
2022-11-24T09:59:17.964Z,94649.34
2022-11-24T10:01:52.735Z,94657.91
2022-11-24T10:04:02.613Z,94661.72
2022-11-24T10:06:11.768Z,94665.88
2022-11-24T10:08:39.709Z,94661.72
2022-11-24T10:11:00.871Z,94663.28
2022-11-24T10:13:16.435Z,94669.34
2022-11-24T10:15:46.941Z,94675.66
2022-11-24T10:18:25.066Z,94682.94
2022-11-24T10:20:29.431Z,94673.31
2022-11-24T10:22:44.353Z,94670.38
2022-11-24T10:25:13.943Z,94686.78
2022-11-24T10:27:18.765Z,94675.38
2022-11-24T10:29:24.725Z,94674.66
2022-11-24T10:31:31.879Z,94675.59
2022-11-24T10:33:31.394Z,94679.16
2022-11-24T10:35:37.244Z,94680.25
2022-11-24T10:37:42.033Z,94667.66
2022-11-24T10:39:46.935Z,94673.97
2022-11-24T10:42:02.721Z,94671.59
2022-11-24T10:44:01.066Z,94679.94
2022-11-24T10:46:10.635Z,94678.25
2022-11-24T10:48:18.689Z,94672.31
2022-11-24T10:50:22.929Z,94679.22
2022-11-24T10:52:25.403Z,94679.94
2022-11-24T10:54:27.124Z,94686.09
2022-11-24T10:56:45.153Z,94678.75
2022-11-24T10:58:43.712Z,94684.88
2022-11-24T11:00:43.695Z,94681.66
2022-11-24T11:02:43.554Z,94686.47
2022-11-24T11:04:41.969Z,94678.00
2022-11-24T11:06:40.650Z,94680.28
2022-11-24T11:08:46.351Z,94688.50
2022-11-24T11:10:49.913Z,94678.38
2022-11-24T11:12:48.563Z,94682.38
2022-11-24T11:14:49.692Z,94687.28
2022-11-24T11:16:53.701Z,94687.69
2022-11-24T11:18:54.239Z,94684.72
2022-11-24T11:20:56.940Z,94696.50
2022-11-24T11:22:56.305Z,94687.94
2022-11-24T11:25:06.577Z,94686.72
2022-11-24T11:27:07.189Z,94696.03
2022-11-24T11:31:35.799Z,94687.44
2022-11-24T11:35:57.581Z,94700.09
2022-11-24T11:37:58.527Z,94704.50
2022-11-24T11:39:56.906Z,94702.47
2022-11-24T11:42:09.038Z,94700.56
2022-11-24T11:44:18.875Z,94706.59
2022-11-24T11:46:17.541Z,94701.72
2022-11-24T11:48:30.605Z,94705.81
2022-11-24T11:51:14.853Z,94694.47
2022-11-24T11:53:16.380Z,94704.72
2022-11-24T11:55:49.452Z,94703.81
2022-11-24T11:57:58.679Z,94708.53
2022-11-24T12:00:09.811Z,94704.31
2022-11-24T12:02:48.451Z,94707.00
2022-11-24T12:04:54.407Z,94701.16
2022-11-24T12:07:02.935Z,94700.75
2022-11-24T12:09:21.267Z,94702.00
2022-11-24T12:11:30.078Z,94711.91
2022-11-24T12:13:46.126Z,94709.03
2022-11-24T12:15:49.669Z,94717.78
2022-11-24T12:17:54.000Z,94715.00
2022-11-24T12:20:15.200Z,94717.94
2022-11-24T12:22:22.206Z,94715.06
2022-11-24T12:24:30.755Z,94715.31
2022-11-24T12:26:36.130Z,94713.06
2022-11-24T12:28:44.541Z,94710.06
2022-11-24T12:30:51.603Z,94715.31
2022-11-24T12:33:18.518Z,94708.13
2022-11-24T12:35:24.486Z,94713.84
2022-11-24T12:37:46.727Z,94714.00
2022-11-24T12:39:54.437Z,94716.59
2022-11-24T12:42:05.300Z,94728.09
2022-11-24T12:44:05.278Z,94720.72
2022-11-24T12:46:15.672Z,94723.91
2022-11-24T12:48:26.426Z,94722.34
2022-11-24T12:50:28.680Z,94730.91
2022-11-24T12:52:32.345Z,94722.88
2022-11-24T12:54:38.048Z,94724.28
2022-11-24T12:56:41.897Z,94730.22
2022-11-24T12:58:50.411Z,94717.44
2022-11-24T13:01:02.170Z,94719.66
2022-11-24T13:03:16.666Z,94729.16
2022-11-24T13:05:22.208Z,94723.63
2022-11-24T13:07:27.339Z,94735.41
2022-11-24T13:09:25.729Z,94739.06
2022-11-24T13:11:36.499Z,94734.69
2022-11-24T13:13:59.330Z,94745.84
2022-11-24T13:18:52.864Z,94753.88
2022-11-24T13:20:51.270Z,94737.16
2022-11-24T13:22:52.809Z,94739.63
2022-11-24T13:25:17.966Z,94741.34
2022-11-24T13:27:42.305Z,94748.63
2022-11-24T13:29:43.199Z,94748.75
2022-11-24T13:31:41.831Z,94742.69
2022-11-24T13:33:41.151Z,94752.09
2022-11-24T13:35:39.727Z,94747.59
2022-11-24T13:37:53.248Z,94749.84
2022-11-24T13:39:54.711Z,94755.88
2022-11-24T13:42:02.408Z,94757.75
2022-11-24T13:44:24.984Z,94753.81
2022-11-24T13:47:04.805Z,94747.63
2022-11-24T13:49:04.075Z,94753.47
2022-11-24T13:51:16.251Z,94744.28
2022-11-24T13:53:23.497Z,94746.25
2022-11-24T13:55:32.212Z,94746.59
2022-11-24T13:57:35.383Z,94748.75
2022-11-24T13:59:36.259Z,94744.84
2022-11-24T14:01:40.889Z,94753.25
2022-11-24T14:04:07.205Z,94754.13
2022-11-24T14:06:08.428Z,94762.28
2022-11-24T14:08:07.982Z,94768.09
2022-11-24T14:10:14.920Z,94771.19
2022-11-24T14:12:16.093Z,94765.72
2022-11-24T14:14:20.814Z,94763.22
2022-11-24T14:16:20.722Z,94769.56
2022-11-24T14:18:23.384Z,94772.16
2022-11-24T14:20:29.448Z,94770.16
2022-11-24T14:22:33.527Z,94763.28
2022-11-24T14:24:39.720Z,94773.50
2022-11-24T14:26:41.269Z,94764.25
2022-11-24T14:28:40.594Z,94768.88
2022-11-24T14:30:43.153Z,94769.25
2022-11-24T14:32:42.382Z,94773.38
2022-11-24T14:34:40.665Z,94775.19
2022-11-24T14:36:40.604Z,94767.81
2022-11-24T14:38:38.951Z,94770.78
2022-11-24T14:40:42.284Z,94780.16
2022-11-24T14:42:40.771Z,94781.72
2022-11-24T14:44:48.055Z,94777.31
2022-11-24T14:46:46.607Z,94768.50
2022-11-24T14:48:49.451Z,94765.31
2022-11-24T14:50:47.872Z,94774.81
2022-11-24T14:52:53.822Z,94771.47
2022-11-24T14:54:55.548Z,94771.34
2022-11-24T14:57:01.742Z,94763.75
2022-11-24T14:59:00.648Z,94774.00
2022-11-24T15:01:22.782Z,94788.25
2022-11-24T15:03:21.093Z,94778.50
2022-11-24T15:05:20.661Z,94778.75
2022-11-24T15:07:25.513Z,94786.69
2022-11-24T15:09:29.894Z,94790.84
2022-11-24T15:11:31.817Z,94791.53
2022-11-24T15:13:37.209Z,94802.66
2022-11-24T15:15:37.414Z,94796.28
2022-11-24T15:17:35.817Z,94800.34
2022-11-24T15:19:35.822Z,94795.59
2022-11-24T15:21:35.630Z,94805.84
2022-11-24T15:23:35.310Z,94802.75
2022-11-24T15:25:35.319Z,94800.50
2022-11-24T15:27:33.423Z,94814.28
2022-11-24T15:29:31.855Z,94809.88
2022-11-24T15:31:30.110Z,94806.03
2022-11-24T15:33:28.893Z,94815.53
2022-11-24T15:35:29.903Z,94812.31
2022-11-24T15:37:33.933Z,94815.44
2022-11-24T15:39:32.312Z,94819.59
2022-11-24T15:41:33.679Z,94813.88
2022-11-24T15:43:33.934Z,94825.03
2022-11-24T15:45:32.152Z,94828.34
2022-11-24T15:47:30.556Z,94820.91
2022-11-24T15:49:28.950Z,94820.31
2022-11-24T15:51:28.035Z,94824.50
2022-11-24T15:53:31.549Z,94822.53
2022-11-24T15:55:30.045Z,94838.94
2022-11-24T15:57:33.916Z,94837.59
2022-11-24T15:59:33.917Z,94843.41
2022-11-24T16:01:34.258Z,94835.91
2022-11-24T16:03:49.049Z,94840.19
2022-11-24T16:05:49.492Z,94840.63
2022-11-24T16:07:54.123Z,94832.31
2022-11-24T16:09:55.835Z,94841.72
2022-11-24T16:11:54.725Z,94846.13
2022-11-24T16:13:59.647Z,94849.22
2022-11-24T16:15:58.324Z,94852.56
2022-11-24T16:17:57.375Z,94846.97
2022-11-24T16:20:00.849Z,94852.53
2022-11-24T16:22:01.489Z,94859.88
2022-11-24T16:24:00.197Z,94850.16
2022-11-24T16:25:58.803Z,94851.78
2022-11-24T16:27:57.640Z,94857.56
2022-11-24T16:29:57.767Z,94861.03
2022-11-24T16:32:00.676Z,94858.19
2022-11-24T16:33:59.456Z,94853.75
2022-11-24T16:35:58.146Z,94856.63
2022-11-24T16:37:57.105Z,94855.81
2022-11-24T16:39:55.994Z,94854.41
2022-11-24T16:41:54.831Z,94850.56
2022-11-24T16:43:53.890Z,94859.34
2022-11-24T16:46:04.495Z,94863.50
2022-11-24T16:48:03.440Z,94861.63
2022-11-24T16:50:02.244Z,94859.66
2022-11-24T16:52:00.934Z,94860.53
2022-11-24T16:54:00.929Z,94860.25
2022-11-24T16:56:02.594Z,94859.28
2022-11-24T16:58:00.941Z,94855.03
2022-11-24T17:00:01.906Z,94858.84
2022-11-24T17:02:05.447Z,94859.22
2022-11-24T17:04:07.065Z,94857.06
2022-11-24T17:06:12.525Z,94855.28
2022-11-24T17:08:10.818Z,94862.41
2022-11-24T17:10:12.198Z,94862.75
2022-11-24T17:12:10.458Z,94865.25
2022-11-24T17:14:08.734Z,94855.03
2022-11-24T17:16:08.425Z,94868.31
2022-11-24T17:18:24.023Z,94862.97
2022-11-24T17:20:23.027Z,94855.25
2022-11-24T17:22:21.093Z,94858.59
2022-11-24T17:24:19.399Z,94862.41
2022-11-24T17:26:18.911Z,94865.03
2022-11-24T17:28:17.031Z,94870.00
2022-11-24T17:30:17.155Z,94864.66
2022-11-24T17:32:15.477Z,94869.75
2022-11-24T17:34:15.325Z,94870.81
2022-11-24T17:36:13.699Z,94870.56
2022-11-24T17:38:11.771Z,94858.56
2022-11-24T17:40:34.317Z,94868.47
2022-11-24T17:42:32.809Z,94869.97
2022-11-24T17:44:32.258Z,94861.94
2022-11-24T17:46:33.092Z,94865.66
2022-11-24T17:48:32.213Z,94863.13
2022-11-24T17:50:31.894Z,94862.81
2022-11-24T17:52:30.913Z,94867.09
2022-11-24T17:54:45.874Z,94864.00
2022-11-24T17:56:46.055Z,94858.19
2022-11-24T17:58:44.465Z,94866.84
2022-11-24T18:00:55.409Z,94867.66
2022-11-24T18:02:53.517Z,94859.34
2022-11-24T18:04:51.980Z,94867.75
2022-11-24T18:06:51.499Z,94866.56
2022-11-24T18:08:49.623Z,94858.84
2022-11-24T18:10:48.235Z,94859.56
2022-11-24T18:12:46.453Z,94860.78
2022-11-24T18:14:44.908Z,94860.28
2022-11-24T18:16:43.083Z,94865.94
2022-11-24T18:18:44.784Z,94862.38
2022-11-24T18:20:55.047Z,94862.66
2022-11-24T18:23:09.819Z,94872.38
2022-11-24T18:25:08.166Z,94869.53
2022-11-24T18:27:06.521Z,94872.06
2022-11-24T18:29:05.506Z,94881.41
2022-11-24T18:31:04.238Z,94880.53
2022-11-24T18:33:02.575Z,94875.06
2022-11-24T18:35:00.816Z,94879.06
2022-11-24T18:36:59.038Z,94881.16
2022-11-24T18:38:59.151Z,94867.41
2022-11-24T18:40:59.077Z,94869.31
2022-11-24T18:42:57.321Z,94868.91
2022-11-24T18:44:57.507Z,94869.22
2022-11-24T18:46:55.818Z,94876.34
2022-11-24T18:48:54.086Z,94875.53
2022-11-24T18:50:52.813Z,94877.41
2022-11-24T18:52:50.998Z,94869.16
2022-11-24T18:54:50.651Z,94875.81
2022-11-24T18:56:48.993Z,94883.19
2022-11-24T18:58:47.605Z,94887.59
2022-11-24T19:00:45.744Z,94883.53
2022-11-24T19:02:44.215Z,94889.91
2022-11-24T19:04:42.386Z,94889.88
2022-11-24T19:06:40.660Z,94882.00
2022-11-24T19:08:38.895Z,94885.47
2022-11-24T19:10:38.641Z,94894.38
2022-11-24T19:12:37.324Z,94888.84
2022-11-24T19:14:35.856Z,94892.19
2022-11-24T19:16:34.909Z,94890.84
2022-11-24T19:18:33.391Z,94898.09
2022-11-24T19:20:31.655Z,94890.50
2022-11-24T19:22:30.461Z,94897.59
2022-11-24T19:24:28.953Z,94894.94
2022-11-24T19:26:28.704Z,94898.81
2022-11-24T19:28:26.956Z,94899.38
2022-11-24T19:30:25.499Z,94896.69
2022-11-24T19:32:23.865Z,94903.16
2022-11-24T19:34:22.086Z,94898.94
2022-11-24T19:36:21.891Z,94911.00
2022-11-24T19:38:20.232Z,94895.72
2022-11-24T19:40:18.605Z,94907.47
2022-11-24T19:42:18.414Z,94905.47
2022-11-24T19:44:17.904Z,94896.97
2022-11-24T19:46:18.717Z,94904.09
2022-11-24T19:48:17.157Z,94912.88
2022-11-24T19:50:15.268Z,94904.44
2022-11-24T19:52:14.036Z,94916.50
2022-11-24T19:54:13.850Z,94915.84
2022-11-24T19:56:14.011Z,94921.00
2022-11-24T19:58:13.483Z,94922.53
2022-11-24T20:00:13.103Z,94919.31
2022-11-24T20:02:12.993Z,94924.38
2022-11-24T20:04:13.659Z,94925.06
2022-11-24T20:06:14.339Z,94925.28
2022-11-24T20:08:12.637Z,94919.84
2022-11-24T20:10:11.657Z,94927.19
2022-11-24T20:12:09.944Z,94928.94
2022-11-24T20:14:12.342Z,94928.94
2022-11-24T20:16:12.319Z,94926.88
2022-11-24T20:18:10.642Z,94929.84
2022-11-24T20:20:09.754Z,94938.72
2022-11-24T20:22:08.348Z,94935.28
2022-11-24T20:24:09.276Z,94949.25
2022-11-24T20:26:10.071Z,94942.72
2022-11-24T20:28:08.471Z,94947.38
2022-11-24T20:30:12.084Z,94948.34
2022-11-24T20:32:10.323Z,94947.44
2022-11-24T20:34:09.970Z,94940.31
2022-11-24T20:36:11.068Z,94941.63
2022-11-24T20:38:09.413Z,94955.19
2022-11-24T20:40:09.554Z,94947.03
2022-11-24T20:42:08.282Z,94950.97
2022-11-24T20:44:10.712Z,94948.78
2022-11-24T20:46:12.374Z,94960.16
2022-11-24T20:48:10.651Z,94951.38
2022-11-24T20:50:09.773Z,94950.38
2022-11-24T20:52:07.961Z,94955.28
2022-11-24T20:54:11.149Z,94962.91
2022-11-24T20:56:11.604Z,94966.91
2022-11-24T20:58:09.961Z,94970.41
2022-11-24T21:00:12.306Z,94963.09
2022-11-24T21:02:12.397Z,94972.69
2022-11-24T21:04:12.426Z,94964.16
2022-11-24T21:06:10.947Z,94968.69
2022-11-24T21:08:09.354Z,94973.09
2022-11-24T21:10:08.825Z,94976.38
2022-11-24T21:12:07.507Z,94976.94
2022-11-24T21:14:06.882Z,94980.31
2022-11-24T21:16:12.954Z,94974.31
2022-11-24T21:18:12.781Z,94979.50
2022-11-24T21:20:11.829Z,94976.78
2022-11-24T21:22:10.169Z,94980.22
2022-11-24T21:24:12.434Z,94975.88
2022-11-24T21:26:15.049Z,94977.47
2022-11-24T21:28:14.964Z,94975.97
2022-11-24T21:30:14.109Z,94979.00
2022-11-24T21:32:12.338Z,94978.59
2022-11-24T21:34:16.022Z,94976.53
2022-11-24T21:36:15.512Z,94975.41
2022-11-24T21:38:14.864Z,94982.06
2022-11-24T21:40:15.123Z,94967.47
2022-11-24T21:42:13.315Z,94979.47
2022-11-24T21:44:12.968Z,94985.19
2022-11-24T21:46:12.609Z,94973.22
2022-11-24T21:48:10.969Z,94974.88
2022-11-24T21:50:12.293Z,94981.31
2022-11-24T21:52:10.377Z,94990.09
2022-11-24T21:54:09.072Z,94984.34
2022-11-24T21:56:09.798Z,94980.72
2022-11-24T21:58:08.342Z,94981.03
2022-11-24T22:00:08.038Z,94982.06
2022-11-24T22:02:10.251Z,94976.25
2022-11-24T22:04:11.339Z,94973.84
2022-11-24T22:06:13.271Z,94978.66
2022-11-24T22:08:11.444Z,94977.09
2022-11-24T22:10:12.925Z,94973.75
2022-11-24T22:12:11.149Z,94975.72
2022-11-24T22:14:10.201Z,94975.19
2022-11-24T22:16:10.490Z,94966.63
2022-11-24T22:18:09.035Z,94966.09
2022-11-24T22:20:08.850Z,94968.63
2022-11-24T22:22:08.319Z,94974.00
2022-11-24T22:24:06.901Z,94966.91
2022-11-24T22:26:06.185Z,94973.38
2022-11-24T22:28:04.353Z,94983.28
2022-11-24T22:30:05.026Z,94991.56
2022-11-24T22:32:03.429Z,94995.84
2022-11-24T22:34:02.409Z,94987.81
2022-11-24T22:36:01.579Z,94998.25
2022-11-24T22:38:01.148Z,94989.91
2022-11-24T22:39:59.329Z,94993.72
2022-11-24T22:41:57.486Z,94997.13
2022-11-24T22:43:55.849Z,94997.94
2022-11-24T22:45:54.302Z,94999.78
2022-11-24T22:47:55.134Z,94998.81
2022-11-24T22:49:53.448Z,94999.28
2022-11-24T22:51:51.831Z,95008.72
2022-11-24T22:53:53.513Z,95008.44
2022-11-24T22:55:51.728Z,95010.09
2022-11-24T22:57:52.285Z,95003.06
2022-11-24T22:59:52.734Z,95003.94
2022-11-24T23:01:50.742Z,95011.56
2022-11-24T23:03:49.686Z,94993.28
2022-11-24T23:05:48.054Z,95002.78
2022-11-24T23:07:46.299Z,95004.41
2022-11-24T23:09:47.669Z,95004.81
2022-11-24T23:11:45.883Z,95001.78
2022-11-24T23:13:45.357Z,94994.41
2022-11-24T23:15:43.612Z,95012.38
2022-11-24T23:17:41.762Z,95010.22
2022-11-24T23:19:40.146Z,95003.94
2022-11-24T23:21:39.471Z,95005.56
2022-11-24T23:23:37.620Z,95005.34
2022-11-24T23:25:37.274Z,95001.56
2022-11-24T23:27:35.404Z,95002.91
2022-11-24T23:29:35.417Z,95005.25
2022-11-24T23:31:34.040Z,95011.00
2022-11-24T23:33:32.802Z,95017.84
2022-11-24T23:35:31.240Z,95007.50
2022-11-24T23:37:52.306Z,95024.06
2022-11-24T23:39:47.955Z,95016.69
2022-11-24T23:41:47.598Z,95016.50
2022-11-24T23:43:45.937Z,95020.56
2022-11-24T23:45:44.222Z,95019.78
2022-11-24T23:47:42.346Z,95032.63
2022-11-24T23:49:40.524Z,95028.53
2022-11-24T23:51:42.071Z,95027.38
2022-11-24T23:53:41.014Z,95024.53
2022-11-24T23:55:39.262Z,95029.88
2022-11-24T23:57:38.789Z,95026.13